Time;durP1;ratioP1;P1;durP2;ratioP2;P2;SDS_P1;SDS_P2;PMS_P1;PMS_P2;Temp;Humidity;BMP_temperature;BMP_pressure;BME280_temperature;BME280_humidity;BME280_pressure;Samples;Min_cycle;Max_cycle;Signal;HPM_P1;HPM_P2
2022/04/30 00:02:10;;;;;;;;;29.33;26.00;;;;;14.71;44.84;101861.66;5075127;28;45513;-64
2022/04/30 00:04:44;;;;;;;;;28.67;26.00;;;;;14.58;45.16;101853.22;5074816;28;45363;-63
2022/04/30 00:07:12;;;;;;;;;29.00;28.00;;;;;14.51;45.11;101856.09;5074832;27;45389;-64
2022/04/30 00:09:38;;;;;;;;;32.00;28.33;;;;;14.43;45.86;101847.53;5074949;28;45552;-61
2022/04/30 00:12:04;;;;;;;;;31.67;30.67;;;;;14.48;45.46;101849.13;5075018;28;45537;-64
2022/04/30 00:14:32;;;;;;;;;29.00;26.67;;;;;14.45;45.77;101843.03;5075050;28;45529;-64
2022/04/30 00:16:58;;;;;;;;;22.00;22.00;;;;;14.47;45.32;101846.50;5073381;28;46777;-63
2022/04/30 00:19:23;;;;;;;;;27.33;25.33;;;;;14.46;45.33;101850.09;5074727;28;45517;-63
2022/04/30 00:21:50;;;;;;;;;31.67;31.67;;;;;14.43;45.58;101850.19;5074944;28;45518;-62
2022/04/30 00:24:15;;;;;;;;;35.67;29.67;;;;;14.35;46.46;101847.78;5074879;28;45338;-63
2022/04/30 00:26:41;;;;;;;;;31.67;29.33;;;;;14.23;46.80;101849.00;5074595;28;47219;-64
2022/04/30 00:29:07;;;;;;;;;30.00;29.00;;;;;14.14;46.78;101839.56;5074578;28;45357;-63
2022/04/30 00:31:34;;;;;;;;;33.33;29.67;;;;;14.07;46.93;101853.88;5074835;28;45528;-63
2022/04/30 00:34:00;;;;;;;;;26.67;26.33;;;;;14.06;47.34;101856.59;5074581;28;45523;-64
2022/04/30 00:36:26;;;;;;;;;30.00;29.00;;;;;14.04;47.79;101858.41;5074473;28;45514;-64
2022/04/30 00:38:51;;;;;;;;;36.00;32.00;;;;;13.89;48.20;101852.66;5074593;28;45498;-64
2022/04/30 00:41:16;;;;;;;;;36.00;32.00;;;;;13.85;48.91;101866.88;5074844;28;45304;-62
2022/04/30 00:43:47;;;;;;;;;33.33;32.00;;;;;13.72;48.59;101851.41;5074749;28;45774;-63
2022/04/30 00:46:16;;;;;;;;;33.00;31.33;;;;;13.82;48.68;101866.09;5078020;28;45524;-64
2022/04/30 00:48:43;;;;;;;;;36.25;33.25;;;;;13.79;49.26;101858.25;5077846;28;45608;-63
2022/04/30 00:51:13;;;;;;;;;36.25;32.50;;;;;13.79;49.71;101852.97;5078073;28;45391;-63
2022/04/30 00:53:41;;;;;;;;;32.67;32.33;;;;;13.72;50.06;101860.19;5077984;28;45428;-63
2022/04/30 00:56:11;;;;;;;;;31.50;31.50;;;;;13.60;50.17;101857.91;5077632;28;45448;-63
2022/04/30 00:58:40;;;;;;;;;35.00;31.33;;;;;13.66;50.17;101860.38;5077910;28;45583;-63
2022/04/30 01:01:05;;;;;;;;;34.50;33.25;;;;;13.72;50.50;101857.56;5077870;28;45454;-63
2022/04/30 01:03:31;;;;;;;;;34.75;32.00;;;;;13.66;50.06;101852.44;5077572;28;45513;-63
2022/04/30 01:05:58;;;;;;;;;41.33;36.00;;;;;13.51;50.83;101856.38;5077787;28;46232;-63
2022/04/30 01:08:27;;;;;;;;;38.00;34.00;;;;;13.46;50.05;101840.66;5076437;28;45421;-62
2022/04/30 01:10:54;;;;;;;;;38.50;33.25;;;;;13.46;51.00;101843.31;5077995;27;45624;-62
2022/04/30 01:13:20;;;;;;;;;34.25;31.75;;;;;13.55;50.70;101844.81;5077716;28;45497;-63
2022/04/30 01:15:45;;;;;;;;;37.50;33.75;;;;;13.61;50.44;101846.41;5077667;28;45514;-63
2022/04/30 01:18:11;;;;;;;;;33.00;29.67;;;;;13.60;50.49;101845.56;5077696;28;45587;-63
2022/04/30 01:20:40;;;;;;;;;34.33;31.67;;;;;13.52;51.32;101838.75;5077657;28;45481;-62
2022/04/30 01:23:07;;;;;;;;;38.00;34.75;;;;;13.52;51.59;101844.06;5076268;28;45520;-63
2022/04/30 01:25:34;;;;;;;;;32.25;31.25;;;;;13.46;51.80;101832.72;5077295;28;46444;-65
2022/04/30 01:28:01;;;;;;;;;34.33;32.00;;;;;13.34;51.75;101834.84;5077420;28;45397;-63
2022/04/30 01:30:27;;;;;;;;;30.67;27.00;;;;;13.33;51.95;101831.34;5077483;28;45482;-63
2022/04/30 01:38:21;;;;;;;;;33.67;29.67;;;;;13.42;51.97;101827.56;5077495;28;45494;-63
2022/04/30 01:40:49;;;;;;;;;38.33;34.67;;;;;13.46;51.25;101824.81;5077139;28;45484;-62
2022/04/30 01:43:15;;;;;;;;;34.33;31.67;;;;;13.50;51.35;101825.56;5077177;28;45418;-63
2022/04/30 01:45:43;;;;;;;;;34.33;32.00;;;;;13.62;51.18;101825.25;5075697;28;47302;-64
2022/04/30 01:48:12;;;;;;;;;34.67;33.00;;;;;13.65;50.65;101827.78;5076892;28;45553;-64
2022/04/30 01:50:38;;;;;;;;;38.67;34.33;;;;;13.59;51.08;101824.44;5076776;28;45453;-64
2022/04/30 01:53:03;;;;;;;;;39.00;35.33;;;;;13.55;51.52;101823.69;5076982;28;45493;-64
2022/04/30 01:55:29;;;;;;;;;38.75;33.00;;;;;13.60;51.46;101811.19;5075890;28;45403;-63
2022/04/30 01:57:55;;;;;;;;;39.67;33.67;;;;;13.64;51.25;101817.25;5076814;28;45517;-64
2022/04/30 02:00:20;;;;;;;;;37.67;33.33;;;;;13.54;51.20;101810.50;5076855;28;45335;-62
2022/04/30 02:02:50;;;;;;;;;37.33;32.00;;;;;13.63;50.82;101815.53;5076627;28;45481;-64
2022/04/30 02:05:18;;;;;;;;;38.33;35.33;;;;;13.70;51.13;101809.13;5076689;28;45615;-64
2022/04/30 02:07:55;;;;;;;;;38.00;34.33;;;;;13.54;50.86;101808.75;5076727;28;45447;-63
2022/04/30 02:10:21;;;;;;;;;35.67;34.33;;;;;13.48;51.49;101807.09;5076604;28;45442;-62
2022/04/30 02:12:50;;;;;;;;;33.67;31.00;;;;;13.38;52.17;101805.66;5076763;28;45437;-62
2022/04/30 02:15:18;;;;;;;;;38.00;35.33;;;;;13.42;52.39;101809.94;5076701;28;46454;-62
2022/04/30 02:17:46;;;;;;;;;39.50;36.00;;;;;13.44;51.83;101802.84;5075205;28;45405;-63
2022/04/30 02:20:22;;;;;;;;;39.67;35.00;;;;;13.44;52.22;101807.25;5076702;28;45421;-63
2022/04/30 02:22:58;;;;;;;;;34.33;32.33;;;;;13.33;52.47;101802.28;5076746;28;45481;-63
2022/04/30 02:25:25;;;;;;;;;41.33;35.00;;;;;13.40;51.70;101805.59;5076424;28;45504;-63
2022/04/30 02:27:53;;;;;;;;;34.67;32.33;;;;;13.36;52.15;101798.69;5074821;28;45527;-63
2022/04/30 02:30:21;;;;;;;;;34.67;33.00;;;;;13.28;52.21;101804.16;5076279;28;45503;-64
2022/04/30 02:32:51;;;;;;;;;32.33;29.00;;;;;13.24;52.70;101802.47;5076389;28;45581;-63
2022/04/30 02:35:19;;;;;;;;;33.67;32.00;;;;;13.24;53.00;101810.38;5076157;28;45486;-64
2022/04/30 02:37:44;;;;;;;;;34.50;33.00;;;;;13.28;53.06;101806.81;5076192;28;45474;-64
2022/04/30 02:40:13;;;;;;;;;34.33;33.00;;;;;13.32;52.34;101803.16;5076336;28;45362;-63
2022/04/30 02:42:39;;;;;;;;;36.00;32.75;;;;;13.29;52.15;101802.38;5076622;28;45519;-63
2022/04/30 02:45:08;;;;;;;;;33.00;30.33;;;;;13.40;52.04;101806.44;5076012;28;46161;-63
2022/04/30 02:47:33;;;;;;;;;26.67;23.00;;;;;13.46;51.71;101803.66;5076142;28;45446;-65
2022/04/30 02:49:58;;;;;;;;;40.00;34.33;;;;;13.47;52.19;101809.81;5076047;28;45434;-63
2022/04/30 02:52:24;;;;;;;;;33.00;29.67;;;;;13.35;51.80;101797.81;5075970;28;45401;-63
2022/04/30 02:54:49;;;;;;;;;36.67;31.67;;;;;13.35;52.04;101799.56;5076039;28;45935;-62
2022/04/30 02:57:15;;;;;;;;;37.33;33.00;;;;;13.33;52.60;101806.69;5057681;28;45384;-63
2022/04/30 02:59:55;;;;;;;;;33.00;29.67;;;;;13.23;52.94;101798.97;5076074;28;45392;-64
2022/04/30 03:02:23;;;;;;;;;34.50;32.00;;;;;13.15;53.24;101795.66;5076033;28;45390;-63
2022/04/30 03:04:53;;;;;;;;;34.50;31.50;;;;;13.12;52.67;101790.47;5075648;27;45393;-63
2022/04/30 03:07:19;;;;;;;;;33.75;31.00;;;;;13.19;52.43;101797.34;5075527;27;45488;-63
2022/04/30 03:09:49;;;;;;;;;41.50;35.50;;;;;13.21;53.01;101792.00;5075674;27;45378;-64
2022/04/30 03:12:15;;;;;;;;;33.75;31.00;;;;;13.15;53.21;101795.66;5074457;28;45619;-63
2022/04/30 03:14:42;;;;;;;;;33.67;30.67;;;;;13.18;52.92;101790.28;5075655;28;45489;-63
2022/04/30 03:22:38;;;;;;;;;43.75;36.00;;;;;13.01;53.73;101790.75;5075887;28;45473;-63
2022/04/30 03:25:04;;;;;;;;;36.75;33.00;;;;;12.95;53.18;101783.00;5075378;27;46411;-63
2022/04/30 03:27:31;;;;;;;;;33.33;31.00;;;;;13.02;53.52;101799.53;5075500;28;45394;-63
2022/04/30 03:29:57;;;;;;;;;36.25;33.00;;;;;13.04;53.37;101790.66;5075599;27;45488;-64
2022/04/30 03:32:24;;;;;;;;;36.75;32.50;;;;;12.99;53.14;101792.56;5075388;27;45454;-63
2022/04/30 03:34:50;;;;;;;;;38.00;31.75;;;;;13.08;53.56;101790.59;5075497;27;45437;-63
2022/04/30 03:37:15;;;;;;;;;33.75;31.25;;;;;13.05;52.98;101789.75;5075544;28;45498;-63
2022/04/30 03:39:40;;;;;;;;;35.25;33.00;;;;;13.11;53.39;101788.75;5075472;27;45284;-62
2022/04/30 03:42:06;;;;;;;;;35.75;34.00;;;;;13.11;53.23;101785.22;5074292;28;45308;-63
2022/04/30 03:44:32;;;;;;;;;36.50;33.00;;;;;13.09;53.30;101784.41;5075221;27;45404;-63
2022/04/30 03:46:57;;;;;;;;;31.50;30.25;;;;;13.02;53.22;101784.56;5075271;27;45419;-63
2022/04/30 03:49:23;;;;;;;;;34.50;31.75;;;;;13.10;52.64;101781.72;5075456;27;45350;-63
2022/04/30 03:51:49;;;;;;;;;39.00;34.50;;;;;13.08;53.29;101786.16;5075315;28;45508;-63
2022/04/30 03:54:14;;;;;;;;;38.33;33.33;;;;;13.16;52.45;101778.91;5075168;27;45516;-61
2022/04/30 03:56:39;;;;;;;;;36.67;30.00;;;;;13.09;52.86;101787.06;5075482;27;45406;-64
2022/04/30 03:59:05;;;;;;;;;39.67;34.67;;;;;13.00;53.20;101785.50;5075224;27;45433;-63
2022/04/30 04:01:30;;;;;;;;;33.50;26.50;;;;;13.01;53.13;101787.25;5075184;27;45625;-64
2022/04/30 04:04:00;;;;;;;;;37.50;34.25;;;;;13.06;52.73;101777.44;5074893;28;46166;-64
2022/04/30 04:06:26;;;;;;;;;36.00;34.50;;;;;12.97;52.88;101778.53;5075178;27;45370;-63
2022/04/30 04:08:52;;;;;;;;;36.00;33.25;;;;;12.88;54.38;101781.41;5075195;28;45390;-63
2022/04/30 04:11:18;;;;;;;;;39.25;34.50;;;;;12.84;53.67;101777.09;5075222;27;45509;-63
2022/04/30 04:19:13;;;;;;;;;34.75;33.00;;;;;12.98;53.71;101782.91;5076799;28;45382;-62
2022/04/30 04:21:38;;;;;;;;;34.50;32.25;;;;;12.95;54.01;101784.75;5078460;27;45580;-63
2022/04/30 04:26:48;;;;;;;;;36.50;33.25;;;;;12.74;54.97;101780.91;5078638;28;45382;-64
2022/04/30 04:29:16;;;;;;;;;41.50;36.25;;;;;12.74;53.76;101786.19;5077175;28;45384;-63
2022/04/30 04:31:42;;;;;;;;;42.50;35.00;;;;;12.73;54.33;101784.44;5078317;27;45413;-63
2022/04/30 04:34:08;;;;;;;;;35.00;33.00;;;;;12.72;54.31;101793.28;5078130;27;45494;-63
2022/04/30 04:36:33;;;;;;;;;49.00;37.75;;;;;12.69;54.93;101788.94;5078123;27;45366;-63
2022/04/30 04:38:58;;;;;;;;;36.75;32.00;;;;;12.72;54.78;101782.72;5078226;27;45382;-64
2022/04/30 04:41:24;;;;;;;;;38.25;35.25;;;;;12.74;54.25;101789.69;5077020;28;45372;-64
2022/04/30 04:43:49;;;;;;;;;36.25;32.00;;;;;12.77;54.63;101788.75;5077531;27;45358;-63
2022/04/30 04:46:15;;;;;;;;;44.50;36.50;;;;;12.74;54.66;101794.13;5077830;27;45358;-63
2022/04/30 04:48:40;;;;;;;;;39.75;36.00;;;;;12.75;54.42;101795.84;5078227;28;45406;-63
2022/04/30 04:51:06;;;;;;;;;39.50;32.25;;;;;12.75;54.75;101803.75;5077989;27;45559;-64
2022/04/30 04:53:31;;;;;;;;;38.50;35.75;;;;;12.78;54.16;101803.69;5077665;27;45559;-63
2022/04/30 04:55:57;;;;;;;;;35.25;33.00;;;;;12.81;54.89;101803.59;5077652;27;45405;-63
2022/04/30 04:58:22;;;;;;;;;38.25;33.00;;;;;12.73;55.12;101803.78;5077743;28;45350;-63
2022/04/30 05:00:49;;;;;;;;;40.25;34.75;;;;;12.79;54.45;101814.22;5077989;27;45623;-63
2022/04/30 05:03:14;;;;;;;;;43.00;36.25;;;;;12.85;54.74;101815.81;5077525;27;47039;-63
2022/04/30 05:05:39;;;;;;;;;38.75;33.00;;;;;12.82;54.26;101819.41;5077426;28;45398;-63
2022/04/30 05:08:05;;;;;;;;;36.25;33.25;;;;;12.85;54.92;101815.81;5076649;28;45758;-64
2022/04/30 05:10:30;;;;;;;;;36.25;35.00;;;;;12.89;54.07;101817.47;5077541;27;45496;-63
2022/04/30 05:12:56;;;;;;;;;35.00;32.50;;;;;12.96;54.12;101820.84;5077420;27;50951;-62
2022/04/30 05:15:22;;;;;;;;;35.25;33.25;;;;;12.94;54.36;101820.84;5076089;28;45466;-62
2022/04/30 05:17:47;;;;;;;;;40.25;33.00;;;;;12.88;54.99;101825.44;5077519;27;45524;-63
2022/04/30 05:20:12;;;;;;;;;43.75;37.00;;;;;12.90;54.48;101823.63;5077510;27;45437;-63
2022/04/30 05:22:37;;;;;;;;;42.75;36.75;;;;;12.83;54.37;101809.72;5077554;27;45508;-63
2022/04/30 05:25:03;;;;;;;;;41.25;33.50;;;;;12.87;54.77;101829.88;5077073;27;47287;-63
2022/04/30 05:27:28;;;;;;;;;41.00;35.25;;;;;12.96;54.38;101823.47;5077345;27;45478;-63
2022/04/30 05:29:54;;;;;;;;;39.00;34.75;;;;;13.01;54.29;101830.38;5075852;27;45603;-65
2022/04/30 05:32:19;;;;;;;;;41.25;37.00;;;;;13.02;54.67;101826.81;5075564;28;45948;-64
2022/04/30 05:34:45;;;;;;;;;47.25;38.50;;;;;12.95;54.44;101829.63;5077657;28;45358;-62
2022/04/30 05:37:11;;;;;;;;;42.00;36.00;;;;;13.02;55.03;101840.00;5077647;27;45402;-63
2022/04/30 05:39:37;;;;;;;;;36.50;34.00;;;;;13.03;54.24;101841.78;5077135;27;45415;-62
2022/04/30 05:42:02;;;;;;;;;46.00;36.75;;;;;13.11;54.17;101843.31;5076915;27;45445;-62
2022/04/30 05:44:27;;;;;;;;;41.75;35.50;;;;;13.13;53.96;101844.16;5077056;27;45446;-64
2022/04/30 05:46:53;;;;;;;;;46.75;38.00;;;;;13.13;54.17;101836.22;5077177;27;45326;-63
2022/04/30 05:49:18;;;;;;;;;42.75;35.50;;;;;13.13;53.74;101846.81;5077128;27;45633;-62
2022/04/30 05:51:44;;;;;;;;;46.25;40.00;;;;;13.12;54.05;101839.78;5076543;27;46183;-63
2022/04/30 05:54:09;;;;;;;;;38.25;34.25;;;;;13.03;53.66;101822.41;5076871;27;45507;-63
2022/04/30 05:56:35;;;;;;;;;43.00;36.50;;;;;13.20;53.75;101843.09;5077076;27;45741;-63
2022/04/30 05:59:00;;;;;;;;;38.00;35.00;;;;;13.21;54.18;101853.59;5077015;27;45659;-63
2022/04/30 06:01:26;;;;;;;;;43.50;36.00;;;;;13.15;53.37;101850.28;5076696;27;45419;-63
2022/04/30 06:03:52;;;;;;;;;42.00;36.50;;;;;13.03;53.53;101841.78;5076517;27;45564;-63
2022/04/30 06:06:19;;;;;;;;;39.50;34.25;;;;;13.03;54.39;101846.19;5076945;27;45406;-62
2022/04/30 06:08:45;;;;;;;;;44.25;38.25;;;;;13.05;54.28;101860.19;5076549;27;45336;-63
2022/04/30 06:11:11;;;;;;;;;45.00;38.50;;;;;12.99;54.21;101855.94;5075219;28;45592;-63
2022/04/30 06:13:36;;;;;;;;;35.75;34.50;;;;;13.01;54.06;101855.91;5076490;27;45439;-64
2022/04/30 06:16:02;;;;;;;;;41.25;36.00;;;;;13.05;53.53;101857.56;5076783;27;45485;-63
2022/04/30 06:18:27;;;;;;;;;42.25;34.50;;;;;13.03;54.37;101862.03;5076551;27;45505;-63
2022/04/30 06:20:52;;;;;;;;;40.25;36.00;;;;;13.04;53.72;101869.91;5076006;27;45470;-63
2022/04/30 06:23:18;;;;;;;;;42.00;35.50;;;;;12.98;53.48;101863.91;5076378;27;45472;-63
2022/04/30 06:25:45;;;;;;;;;36.25;33.00;;;;;12.85;54.00;101863.34;5076274;27;45336;-62
2022/04/30 06:28:12;;;;;;;;;36.25;34.25;;;;;12.82;54.53;101866.06;5076268;27;45632;-61
2022/04/30 06:30:38;;;;;;;;;40.75;33.00;;;;;12.88;54.08;101868.56;5076084;27;45626;-64
2022/04/30 06:33:03;;;;;;;;;42.25;33.75;;;;;12.91;54.29;101872.88;5076148;27;45821;-63
2022/04/30 06:35:28;;;;;;;;;38.00;33.75;;;;;12.78;54.61;101862.63;5074975;28;45512;-66
2022/04/30 06:37:53;;;;;;;;;42.00;36.00;;;;;12.97;53.76;101878.00;5076291;27;45625;-63
2022/04/30 06:40:20;;;;;;;;;42.00;36.25;;;;;13.03;53.55;101875.25;5075998;27;46025;-63
2022/04/30 06:42:48;;;;;;;;;44.00;38.50;;;;;13.04;53.46;101883.09;5075320;27;45414;-63
2022/04/30 06:45:14;;;;;;;;;42.75;35.75;;;;;13.08;53.60;101878.59;5076336;27;45406;-63
2022/04/30 06:47:40;;;;;;;;;41.25;35.50;;;;;13.03;53.79;101872.59;5076267;27;45442;-64
2022/04/30 06:50:07;;;;;;;;;36.00;33.25;;;;;13.09;53.78;101875.06;5076043;28;45523;-63
2022/04/30 06:52:33;;;;;;;;;42.50;35.75;;;;;13.19;53.42;101884.50;5076006;27;45429;-63
2022/04/30 06:57:45;;;;;;;;;38.75;35.25;;;;;13.40;52.90;101883.09;5076063;28;45537;-62
2022/04/30 07:02:55;;;;;;;;;38.50;33.75;;;;;13.36;52.77;101886.72;5075522;28;45412;-63
2022/04/30 07:05:21;;;;;;;;;40.75;36.00;;;;;13.39;52.79;101897.22;5074692;28;45398;-63
2022/04/30 07:07:46;;;;;;;;;38.25;33.00;;;;;13.36;52.57;101889.38;5074511;28;45466;-62
2022/04/30 07:10:12;;;;;;;;;40.25;35.50;;;;;13.40;52.29;101887.50;5075450;27;45437;-62
2022/04/30 07:12:37;;;;;;;;;37.75;34.50;;;;;13.36;51.62;101884.09;5075548;27;45367;-63
2022/04/30 07:15:03;;;;;;;;;39.25;36.00;;;;;13.28;51.86;101890.50;5075678;27;45370;-62
2022/04/30 07:17:28;;;;;;;;;36.75;32.75;;;;;13.16;51.98;101894.25;5075477;27;45503;-63
2022/04/30 07:19:53;;;;;;;;;35.00;32.33;;;;;13.16;52.00;101897.75;5075478;27;46314;-63
2022/04/30 07:22:19;;;;;;;;;38.67;34.33;;;;;13.32;52.08;101900.06;5075673;27;45442;-63
2022/04/30 07:24:44;;;;;;;;;33.33;31.33;;;;;13.43;52.19;101898.00;5074531;28;45413;-63
2022/04/30 07:27:10;;;;;;;;;34.67;29.67;;;;;13.54;51.72;101903.00;5075780;27;45537;-63
2022/04/30 07:29:38;;;;;;;;;28.00;26.00;;;;;13.59;51.06;101906.38;5075239;28;46094;-63
2022/04/30 07:32:07;;;;;;;;;33.25;31.50;;;;;13.58;50.57;101899.38;5075654;27;45497;-63
2022/04/30 07:34:33;;;;;;;;;30.33;30.00;;;;;13.65;50.85;101901.81;5075445;27;45354;-63
2022/04/30 07:36:59;;;;;;;;;36.50;33.50;;;;;13.72;50.69;101899.00;5075507;27;45535;-61
2022/04/30 07:39:24;;;;;;;;;33.67;30.00;;;;;13.74;50.40;101898.03;5075335;27;46967;-62
2022/04/30 07:41:49;;;;;;;;;34.33;30.67;;;;;13.82;50.57;101900.47;5075449;27;45511;-62
2022/04/30 07:44:15;;;;;;;;;35.00;32.75;;;;;13.57;50.60;101900.31;5075338;27;45414;-64
2022/04/30 07:46:41;;;;;;;;;40.75;35.25;;;;;13.42;50.93;101904.19;5075363;27;45620;-64
2022/04/30 07:49:06;;;;;;;;;35.00;30.33;;;;;13.39;51.25;101904.28;5075064;27;46120;-64
2022/04/30 07:51:35;;;;;;;;;32.50;30.50;;;;;13.45;50.89;101914.69;5074775;27;45592;-63
2022/04/30 07:54:04;;;;;;;;;31.00;29.33;;;;;13.50;50.76;101914.56;5076882;27;45449;-63
2022/04/30 07:56:30;;;;;;;;;36.75;33.50;;;;;13.44;50.39;101908.53;5078839;28;45584;-63
2022/04/30 07:58:55;;;;;;;;;35.50;32.25;;;;;13.34;50.19;101903.53;5078419;28;46158;-63
2022/04/30 08:01:21;;;;;;;;;33.00;30.33;;;;;13.46;50.65;101921.72;5078331;27;45447;-63
2022/04/30 08:03:46;;;;;;;;;29.00;28.00;;;;;13.54;50.73;101919.75;5078375;27;45466;-62
2022/04/30 08:06:12;;;;;;;;;33.00;33.00;;;;;13.64;50.37;101926.50;5078628;27;45339;-62
2022/04/30 08:08:38;;;;;;;;;34.50;32.00;;;;;13.52;50.57;101915.41;5078535;27;45572;-61
2022/04/30 08:11:04;;;;;;;;;34.00;29.67;;;;;13.44;50.41;101918.25;5078541;27;45529;-62
2022/04/30 08:13:29;;;;;;;;;34.33;31.00;;;;;13.55;50.49;101925.91;5078599;27;45438;-63
2022/04/30 08:15:54;;;;;;;;;32.67;28.67;;;;;13.56;50.37;101923.19;5078591;27;45539;-63
2022/04/30 08:18:20;;;;;;;;;32.67;29.67;;;;;13.61;50.55;101912.50;5078123;27;46194;-62
2022/04/30 08:20:46;;;;;;;;;34.67;29.33;;;;;13.73;50.19;101911.28;5078460;27;45369;-62
2022/04/30 08:23:12;;;;;;;;;38.50;32.50;;;;;13.84;50.42;101922.47;5077289;28;45501;-62
2022/04/30 08:25:38;;;;;;;;;29.00;27.00;;;;;13.87;49.98;101912.66;5078429;27;45602;-63
2022/04/30 08:28:04;;;;;;;;;28.67;28.67;;;;;13.87;49.90;101910.03;5076786;28;46107;-63
2022/04/30 08:30:30;;;;;;;;;29.00;29.00;;;;;13.93;49.63;101909.84;5078308;28;45455;-63
2022/04/30 08:32:55;;;;;;;;;33.00;29.67;;;;;13.88;49.54;101918.81;5078334;28;45492;-63
2022/04/30 08:35:20;;;;;;;;;33.67;31.33;;;;;13.92;49.48;101913.41;5078345;27;45670;-63
2022/04/30 08:37:46;;;;;;;;;31.33;29.33;;;;;13.92;49.57;101918.69;5077669;27;45384;-63
2022/04/30 08:40:11;;;;;;;;;34.67;32.00;;;;;13.92;49.36;101900.19;5077874;27;45458;-64
2022/04/30 08:42:37;;;;;;;;;32.67;31.67;;;;;14.05;49.20;101913.94;5077950;28;45495;-63
2022/04/30 08:45:06;;;;;;;;;28.33;25.67;;;;;14.14;49.36;101907.50;5078232;27;45473;-63
2022/04/30 08:47:37;;;;;;;;;29.67;29.67;;;;;14.20;49.02;101904.66;5077647;27;47286;-62
2022/04/30 08:50:03;;;;;;;;;28.67;27.67;;;;;14.29;49.52;101912.34;5077683;27;45393;-63
2022/04/30 08:52:29;;;;;;;;;27.67;26.00;;;;;14.33;48.69;101903.38;5077997;27;45565;-63
2022/04/30 08:54:54;;;;;;;;;24.33;20.00;;;;;14.41;48.99;101902.28;5077793;27;45567;-62
2022/04/30 08:57:20;;;;;;;;;31.00;28.33;;;;;14.45;48.11;101895.97;5077627;27;45992;-63
2022/04/30 08:59:46;;;;;;;;;29.00;27.33;;;;;14.46;48.50;101901.25;5077696;27;45470;-63
2022/04/30 09:02:12;;;;;;;;;29.33;28.33;;;;;14.51;48.56;101896.69;5077634;28;45359;-63
2022/04/30 09:04:47;;;;;;;;;32.33;31.00;;;;;14.57;48.63;101890.34;5077052;28;45611;-64
2022/04/30 09:07:20;;;;;;;;;27.67;25.33;;;;;14.52;47.96;101877.25;5077919;27;46021;-63
2022/04/30 09:09:54;;;;;;;;;29.00;26.00;;;;;14.58;47.67;101886.78;5077453;27;45402;-64
2022/04/30 09:12:20;;;;;;;;;32.00;30.67;;;;;14.50;47.37;101870.22;5077519;28;45404;-63
2022/04/30 09:14:47;;;;;;;;;32.33;28.33;;;;;14.60;48.08;101889.41;5076431;28;45394;-63
2022/04/30 09:17:14;;;;;;;;;28.00;26.00;;;;;14.57;47.20;101885.06;5077603;27;45500;-63
2022/04/30 09:19:46;;;;;;;;;29.00;28.00;;;;;14.46;48.21;101885.34;5077396;27;45431;-62
2022/04/30 09:22:14;;;;;;;;;31.00;29.33;;;;;14.45;48.22;101874.81;5077420;27;45295;-63
2022/04/30 09:24:50;;;;;;;;;31.00;28.00;;;;;14.51;47.20;101882.56;5077373;27;45490;-63
2022/04/30 09:27:17;;;;;;;;;30.00;26.67;;;;;14.47;47.47;101871.19;5076985;28;46132;-64
2022/04/30 09:29:43;;;;;;;;;30.00;28.33;;;;;14.57;47.76;101880.63;5077239;27;45427;-63
2022/04/30 09:32:08;;;;;;;;;27.67;25.67;;;;;14.62;48.00;101877.84;5076930;27;45488;-63
2022/04/30 09:37:42;;;;;;;;;28.33;26.67;;;;;14.73;46.75;101881.00;5076656;28;45605;-63
2022/04/30 09:40:13;;;;;;;;;26.67;26.67;;;;;14.69;46.36;101874.06;5076891;27;45394;-63
2022/04/30 09:42:40;;;;;;;;;26.67;22.67;;;;;14.66;46.06;101878.59;5076350;28;45481;-62
2022/04/30 09:45:07;;;;;;;;;20.67;20.00;;;;;14.63;44.62;101871.63;5077090;27;45480;-63
2022/04/30 09:47:36;;;;;;;;;19.67;19.33;;;;;14.69;44.97;101875.84;5076529;28;46420;-63
2022/04/30 09:53:56;;;;;;;;;21.33;17.67;;;;;14.76;43.17;101872.97;5076809;28;45450;-63
2022/04/30 09:55:54;;;;;;;;;17.00;17.00;;;;;14.84;44.26;101862.13;5076689;27;45354;-63
2022/04/30 09:58:25;;;;;;;;;22.00;20.67;;;;;14.94;43.54;101874.16;5076415;27;45392;-63
2022/04/30 10:00:58;;;;;;;;;18.33;18.33;;;;;14.92;42.28;101872.47;5076440;27;45374;-63
2022/04/30 10:03:29;;;;;;;;;16.00;14.67;;;;;14.94;42.70;101871.50;5076428;27;45255;-64
2022/04/30 10:06:04;;;;;;;;;19.00;19.00;;;;;14.95;42.47;101870.56;5076452;27;45414;-63
2022/04/30 10:08:34;;;;;;;;;17.33;16.67;;;;;15.00;42.30;101865.97;5076402;28;47324;-63
2022/04/30 10:11:26;;;;;;;;;17.33;15.67;;;;;15.03;42.64;101865.88;5076579;27;45502;-64
2022/04/30 10:14:16;;;;;;;;;17.67;16.33;;;;;15.10;41.67;101871.84;5076788;27;45454;-63
2022/04/30 10:16:58;;;;;;;;;14.33;12.00;;;;;15.13;40.92;101866.44;5075474;28;45429;-62
2022/04/30 10:19:24;;;;;;;;;16.33;16.00;;;;;15.10;39.94;101863.00;5076481;28;45490;-62
2022/04/30 10:22:10;;;;;;;;;19.00;17.67;;;;;15.04;40.31;101858.78;5076097;27;45474;-65
2022/04/30 10:24:40;;;;;;;;;17.33;16.33;;;;;15.04;41.31;101861.44;5076542;28;45518;-63
2022/04/30 10:27:05;;;;;;;;;16.67;16.67;;;;;15.09;42.35;101858.66;5076494;28;45406;-63
2022/04/30 10:29:30;;;;;;;;;23.67;19.33;;;;;15.16;42.43;101854.88;5076389;27;46145;-64
2022/04/30 10:31:56;;;;;;;;;18.67;16.00;;;;;15.20;42.22;101857.34;5076378;27;45438;-63
2022/04/30 10:34:29;;;;;;;;;18.00;18.00;;;;;15.23;42.40;101859.03;5076500;27;45367;-63
2022/04/30 10:36:55;;;;;;;;;18.00;18.00;;;;;15.26;41.56;101858.94;5076276;27;45404;-63
2022/04/30 10:39:20;;;;;;;;;15.00;15.00;;;;;15.29;41.67;101855.31;5076133;27;45749;-64
2022/04/30 10:41:50;;;;;;;;;15.33;14.33;;;;;15.22;40.71;101847.56;5075159;28;45391;-62
2022/04/30 10:44:15;;;;;;;;;15.33;13.33;;;;;15.30;40.45;101851.75;5076439;27;45390;-63
2022/04/30 10:46:45;;;;;;;;;16.00;16.00;;;;;15.31;41.29;101845.50;5075986;27;45450;-63
2022/04/30 10:49:11;;;;;;;;;16.67;16.67;;;;;15.36;41.44;101833.81;5074642;28;46245;-63
2022/04/30 10:51:41;;;;;;;;;15.33;13.00;;;;;15.46;40.54;101845.84;5075677;28;45473;-63
2022/04/30 10:54:10;;;;;;;;;11.67;11.67;;;;;15.50;40.14;101836.00;5076211;27;45487;-63
2022/04/30 10:56:37;;;;;;;;;12.67;12.33;;;;;15.56;40.14;101834.91;5076181;27;45459;-63
2022/04/30 10:59:03;;;;;;;;;18.00;16.33;;;;;15.60;40.54;101825.91;5075992;27;46176;-61
2022/04/30 11:01:28;;;;;;;;;14.67;13.00;;;;;15.61;39.43;101815.25;5075679;27;45354;-61
2022/04/30 11:03:54;;;;;;;;;12.67;11.00;;;;;15.64;39.54;101816.94;5075455;27;45407;-61
2022/04/30 11:06:22;;;;;;;;;12.00;12.00;;;;;15.71;39.39;101823.75;5076259;27;45677;-62
2022/04/30 11:08:56;;;;;;;;;19.00;18.00;;;;;15.77;39.49;101822.66;5075775;27;45488;-62
2022/04/30 11:11:22;;;;;;;;;14.33;13.33;;;;;15.82;40.07;101818.03;5075614;27;45615;-62
2022/04/30 11:14:04;;;;;;;;;17.67;16.33;;;;;15.81;38.65;101818.97;5075713;27;45522;-62
2022/04/30 11:16:33;;;;;;;;;14.33;13.67;;;;;15.77;39.35;101794.38;5075784;27;45539;-63
2022/04/30 11:19:07;;;;;;;;;16.00;16.00;;;;;15.79;37.97;101815.50;5075707;27;45417;-63
2022/04/30 11:21:34;;;;;;;;;14.33;12.00;;;;;15.82;38.72;101796.81;5075692;28;45508;-63
2022/04/30 11:24:00;;;;;;;;;13.00;13.00;;;;;15.75;37.09;101796.22;5075593;27;45542;-63
2022/04/30 11:26:27;;;;;;;;;14.33;13.00;;;;;15.77;37.81;101785.53;5075631;27;45484;-63
2022/04/30 11:28:52;;;;;;;;;12.67;12.67;;;;;15.83;38.86;101795.91;5075219;27;45457;-61
2022/04/30 11:31:19;;;;;;;;;12.00;12.00;;;;;15.92;38.79;101800.88;5075267;27;45679;-62
2022/04/30 11:33:45;;;;;;;;;17.00;15.00;;;;;15.94;38.54;101792.84;5074526;28;45515;-63
2022/04/30 11:36:10;;;;;;;;;12.67;12.67;;;;;15.97;38.09;101782.97;5075359;27;45576;-62
2022/04/30 11:38:36;;;;;;;;;14.00;13.33;;;;;16.01;38.76;101797.88;5074749;27;46459;-62
2022/04/30 11:41:03;;;;;;;;;12.00;12.00;;;;;16.01;36.94;101789.91;5075509;27;45493;-62